createdAt,value
2017-12-03T00:00:01.000Z,0.85
2017-12-03T00:01:01.000Z,0.83
2017-12-03T00:02:01.000Z,0.84
2017-12-03T00:03:01.000Z,0.85
2017-12-03T00:04:01.000Z,0.84
2017-12-03T00:05:01.000Z,0.83
2017-12-03T00:06:01.000Z,0.80
2017-12-03T00:07:01.000Z,0.75
2017-12-03T00:08:01.000Z,0.72
2017-12-03T00:09:01.000Z,0.71
2017-12-03T00:10:01.000Z,0.70
2017-12-03T00:11:01.000Z,0.70
2017-12-03T00:12:01.000Z,0.69
2017-12-03T00:13:01.000Z,0.67
2017-12-03T00:14:01.000Z,0.66
2017-12-03T00:15:01.000Z,0.64
2017-12-03T00:16:01.000Z,0.62
2017-12-03T00:17:01.000Z,0.60
2017-12-03T00:18:01.000Z,0.55
2017-12-03T00:19:01.000Z,0.52
2017-12-03T00:20:01.000Z,0.46
2017-12-03T00:21:01.000Z,0.36
2017-12-03T00:22:01.000Z,0.27
2017-12-03T00:23:01.000Z,0.21
2017-12-03T00:24:01.000Z,0.16
2017-12-03T00:25:01.000Z,0.12
2017-12-03T00:26:01.000Z,0.11
2017-12-03T00:27:01.000Z,0.11
2017-12-03T00:28:01.000Z,0.11
2017-12-03T00:29:01.000Z,0.08
2017-12-03T00:30:01.000Z,0.07
2017-12-03T00:31:01.000Z,0.05
2017-12-03T00:32:01.000Z,0.07
2017-12-03T00:33:01.000Z,0.07
2017-12-03T00:34:01.000Z,0.08
2017-12-03T00:35:01.000Z,0.09
2017-12-03T00:36:01.000Z,0.08
2017-12-03T00:37:01.000Z,0.08
2017-12-03T00:38:01.000Z,0.07
2017-12-03T00:39:01.000Z,0.08
2017-12-03T00:40:01.000Z,0.07
2017-12-03T00:41:01.000Z,0.05
2017-12-03T00:42:01.000Z,0.07
2017-12-03T00:43:01.000Z,0.05
2017-12-03T00:44:01.000Z,0.04
2017-12-03T00:45:01.000Z,0.02
2017-12-03T00:46:01.000Z,0.01
2017-12-03T00:47:01.000Z,0.00
2017-12-03T00:48:01.000Z,-0.01
2017-12-03T00:49:01.000Z,-0.03
2017-12-03T00:50:01.000Z,-0.02
2017-12-03T00:51:01.000Z,0.00
2017-12-03T00:52:01.000Z,-0.03
2017-12-03T00:53:01.000Z,-0.06
2017-12-03T00:54:01.000Z,-0.07
2017-12-03T00:55:01.000Z,-0.08
2017-12-03T00:56:01.000Z,-0.08
2017-12-03T00:57:01.000Z,-0.08
2017-12-03T00:58:01.000Z,-0.10
2017-12-03T00:59:01.000Z,-0.10
2017-12-03T01:00:01.000Z,-0.10
2017-12-03T01:01:01.000Z,-0.11
2017-12-03T01:02:01.000Z,-0.09
2017-12-03T01:03:01.000Z,-0.08
2017-12-03T01:04:01.000Z,-0.09
2017-12-03T01:05:01.000Z,-0.06
2017-12-03T01:06:01.000Z,-0.07
2017-12-03T01:07:01.000Z,-0.07
2017-12-03T01:08:01.000Z,-0.10
2017-12-03T01:09:01.000Z,-0.12
2017-12-03T01:10:01.000Z,-0.14
2017-12-03T01:11:01.000Z,-0.16
2017-12-03T01:12:01.000Z,-0.19
2017-12-03T01:13:01.000Z,-0.20
2017-12-03T01:14:01.000Z,-0.23
2017-12-03T01:15:01.000Z,-0.21
2017-12-03T01:16:01.000Z,-0.20
2017-12-03T01:17:01.000Z,-0.21
2017-12-03T01:18:01.000Z,-0.27
2017-12-03T01:19:01.000Z,-0.26
2017-12-03T01:20:01.000Z,-0.25
2017-12-03T01:21:01.000Z,-0.25
2017-12-03T01:22:01.000Z,-0.26
2017-12-03T01:23:01.000Z,-0.28
2017-12-03T01:24:01.000Z,-0.28
2017-12-03T01:25:01.000Z,-0.30
2017-12-03T01:26:01.000Z,-0.29
2017-12-03T01:27:01.000Z,-0.33
2017-12-03T01:28:01.000Z,-0.34
2017-12-03T01:29:01.000Z,-0.33
2017-12-03T01:30:01.000Z,-0.33
2017-12-03T01:31:01.000Z,-0.31
2017-12-03T01:32:01.000Z,-0.28
2017-12-03T01:33:01.000Z,-0.26
2017-12-03T01:34:01.000Z,-0.24
2017-12-03T01:35:01.000Z,-0.21
2017-12-03T01:36:01.000Z,-0.21
2017-12-03T01:37:01.000Z,-0.17
2017-12-03T01:38:01.000Z,-0.15
2017-12-03T01:39:01.000Z,-0.13
2017-12-03T01:40:01.000Z,-0.10
2017-12-03T01:41:01.000Z,-0.10
2017-12-03T01:42:01.000Z,-0.07
2017-12-03T01:43:01.000Z,-0.06
2017-12-03T01:44:01.000Z,-0.05
2017-12-03T01:45:01.000Z,-0.06
2017-12-03T01:46:01.000Z,-0.04
2017-12-03T01:47:01.000Z,-0.05
2017-12-03T01:48:01.000Z,-0.05
2017-12-03T01:49:01.000Z,-0.05
2017-12-03T01:50:01.000Z,-0.06
2017-12-03T01:51:01.000Z,-0.06
2017-12-03T01:52:01.000Z,-0.06
2017-12-03T01:53:01.000Z,-0.06
2017-12-03T01:54:01.000Z,-0.06
2017-12-03T01:55:01.000Z,-0.04
2017-12-03T01:56:01.000Z,-0.04
2017-12-03T01:57:01.000Z,-0.04
2017-12-03T01:58:01.000Z,-0.04
2017-12-03T01:59:01.000Z,-0.05
2017-12-03T02:00:01.000Z,-0.06
2017-12-03T02:01:01.000Z,-0.06
2017-12-03T02:02:01.000Z,-0.05
2017-12-03T02:03:01.000Z,-0.02
2017-12-03T02:04:01.000Z,0.00
2017-12-03T02:05:01.000Z,0.01
2017-12-03T02:06:01.000Z,0.00
2017-12-03T02:07:01.000Z,-0.01
2017-12-03T02:08:01.000Z,-0.02
2017-12-03T02:09:01.000Z,-0.01
2017-12-03T02:10:01.000Z,-0.02
2017-12-03T02:11:01.000Z,-0.04
2017-12-03T02:12:01.000Z,-0.04
2017-12-03T02:13:01.000Z,-0.03
2017-12-03T02:14:02.000Z,-0.04
2017-12-03T02:15:01.000Z,-0.05
2017-12-03T02:16:01.000Z,-0.06
2017-12-03T02:17:01.000Z,-0.06
2017-12-03T02:18:01.000Z,-0.09
2017-12-03T02:19:01.000Z,-0.08
2017-12-03T02:20:01.000Z,-0.08
2017-12-03T02:21:01.000Z,-0.07
2017-12-03T02:22:01.000Z,-0.05
2017-12-03T02:23:01.000Z,-0.04
2017-12-03T02:24:01.000Z,-0.05
2017-12-03T02:25:01.000Z,-0.02
2017-12-03T02:26:01.000Z,-0.02
2017-12-03T02:27:01.000Z,-0.01
2017-12-03T02:28:01.000Z,0.01
2017-12-03T02:29:01.000Z,0.02
2017-12-03T02:30:01.000Z,0.01
2017-12-03T02:31:01.000Z,0.02
2017-12-03T02:32:01.000Z,-0.01
2017-12-03T02:33:01.000Z,-0.03
2017-12-03T02:34:01.000Z,-0.01
2017-12-03T02:35:01.000Z,-0.05
2017-12-03T02:36:01.000Z,-0.04
2017-12-03T02:37:01.000Z,-0.03
2017-12-03T02:38:01.000Z,-0.04
2017-12-03T02:39:01.000Z,-0.04
2017-12-03T02:40:01.000Z,-0.05
2017-12-03T02:41:02.000Z,-0.05
2017-12-03T02:42:02.000Z,-0.06
2017-12-03T02:43:02.000Z,-0.04
2017-12-03T02:44:02.000Z,-0.04
2017-12-03T02:45:02.000Z,-0.02
2017-12-03T02:46:02.000Z,-0.03
2017-12-03T02:47:02.000Z,0.01
2017-12-03T02:48:02.000Z,0.01
2017-12-03T02:49:02.000Z,0.00
2017-12-03T02:50:02.000Z,0.00
2017-12-03T02:51:02.000Z,0.00
2017-12-03T02:52:02.000Z,0.00
2017-12-03T02:53:02.000Z,0.01
2017-12-03T02:54:02.000Z,0.03
2017-12-03T02:55:02.000Z,0.02
2017-12-03T02:56:02.000Z,0.01
2017-12-03T02:57:02.000Z,0.03
2017-12-03T02:58:02.000Z,0.04
2017-12-03T02:59:02.000Z,0.04
2017-12-03T03:00:02.000Z,0.04
2017-12-03T03:01:02.000Z,0.05
2017-12-03T03:02:02.000Z,0.02
2017-12-03T03:03:02.000Z,0.02
2017-12-03T03:04:02.000Z,0.03
2017-12-03T03:05:02.000Z,0.02
2017-12-03T03:06:02.000Z,0.01
2017-12-03T03:07:02.000Z,0.00
2017-12-03T03:08:02.000Z,-0.01
2017-12-03T03:09:02.000Z,-0.01
2017-12-03T03:10:02.000Z,-0.02
2017-12-03T03:11:02.000Z,-0.01
2017-12-03T03:12:02.000Z,-0.03
2017-12-03T03:13:02.000Z,-0.04
2017-12-03T03:14:02.000Z,-0.04
2017-12-03T03:15:02.000Z,-0.05
2017-12-03T03:17:34.000Z,-0.05
2017-12-03T03:17:36.000Z,-0.08
2017-12-03T03:18:02.000Z,-0.08
2017-12-03T03:19:02.000Z,-0.08
2017-12-03T03:20:02.000Z,-0.09
2017-12-03T03:21:02.000Z,-0.09
2017-12-03T03:22:02.000Z,-0.09
2017-12-03T03:23:02.000Z,-0.11
2017-12-03T03:24:02.000Z,-0.13
2017-12-03T03:25:02.000Z,-0.13
2017-12-03T03:26:02.000Z,-0.15
2017-12-03T03:27:02.000Z,-0.17
2017-12-03T03:28:03.000Z,-0.18
2017-12-03T03:29:02.000Z,-0.20
2017-12-03T03:30:02.000Z,-0.23
2017-12-03T03:31:02.000Z,-0.25
2017-12-03T03:32:02.000Z,-0.25
2017-12-03T03:33:02.000Z,-0.27
2017-12-03T03:34:02.000Z,-0.28
2017-12-03T03:35:02.000Z,-0.29
2017-12-03T03:36:02.000Z,-0.28
2017-12-03T03:37:02.000Z,-0.28
2017-12-03T03:38:02.000Z,-0.29
2017-12-03T03:39:02.000Z,-0.28
2017-12-03T03:40:02.000Z,-0.30
2017-12-03T03:41:02.000Z,-0.30
2017-12-03T03:42:03.000Z,-0.31
2017-12-03T03:43:02.000Z,-0.30
2017-12-03T03:44:02.000Z,-0.31
2017-12-03T03:45:02.000Z,-0.31
2017-12-03T03:46:02.000Z,-0.35
2017-12-03T03:47:02.000Z,-0.37
2017-12-03T03:48:02.000Z,-0.37
2017-12-03T03:49:02.000Z,-0.42
2017-12-03T03:50:02.000Z,-0.47
2017-12-03T03:51:02.000Z,-0.49
2017-12-03T03:52:02.000Z,-0.56
2017-12-03T03:53:02.000Z,-0.60
2017-12-03T03:54:02.000Z,-0.64
2017-12-03T03:55:02.000Z,-0.68
2017-12-03T03:56:02.000Z,-0.73
2017-12-03T03:57:02.000Z,-0.77
2017-12-03T03:58:02.000Z,-0.80
2017-12-03T03:59:02.000Z,-0.91
2017-12-03T04:00:02.000Z,-0.95
2017-12-03T04:01:02.000Z,-0.99
2017-12-03T04:02:02.000Z,-0.99
2017-12-03T04:03:02.000Z,-0.98
2017-12-03T04:04:02.000Z,-1.00
2017-12-03T04:05:02.000Z,-1.04
2017-12-03T04:06:02.000Z,-1.05
2017-12-03T04:07:02.000Z,-1.06
2017-12-03T04:08:02.000Z,-1.07
2017-12-03T04:09:02.000Z,-1.08
2017-12-03T04:10:02.000Z,-1.09
2017-12-03T04:11:02.000Z,-1.08
2017-12-03T04:12:02.000Z,-1.07
2017-12-03T04:13:02.000Z,-1.04
2017-12-03T04:14:02.000Z,-0.99
2017-12-03T04:15:02.000Z,-0.96
2017-12-03T04:16:02.000Z,-0.91
2017-12-03T04:17:02.000Z,-0.89
2017-12-03T04:18:02.000Z,-0.90
2017-12-03T04:19:02.000Z,-0.92
2017-12-03T04:20:02.000Z,-0.94
2017-12-03T04:21:02.000Z,-1.00
2017-12-03T04:22:02.000Z,-1.06
2017-12-03T04:23:02.000Z,-1.13
2017-12-03T04:24:02.000Z,-1.18
2017-12-03T04:25:02.000Z,-1.21
2017-12-03T04:26:02.000Z,-1.26
2017-12-03T04:27:02.000Z,-1.29
2017-12-03T04:28:02.000Z,-1.28
2017-12-03T04:29:02.000Z,-1.26
2017-12-03T04:30:02.000Z,-1.24
2017-12-03T04:31:02.000Z,-1.25
2017-12-03T04:32:02.000Z,-1.24
2017-12-03T04:33:02.000Z,-1.29
2017-12-03T04:34:02.000Z,-1.28
2017-12-03T04:35:02.000Z,-1.32
2017-12-03T04:36:02.000Z,-1.39
2017-12-03T04:37:02.000Z,-1.43
2017-12-03T04:38:02.000Z,-1.46
2017-12-03T04:39:02.000Z,-1.47
2017-12-03T04:40:02.000Z,-1.46
2017-12-03T04:41:02.000Z,-1.46
2017-12-03T04:41:55.000Z,-1.46
2017-12-03T04:42:26.000Z,-1.46
2017-12-03T04:43:02.000Z,-1.50
2017-12-03T04:44:02.000Z,-1.53
2017-12-03T04:45:02.000Z,-1.59
2017-12-03T04:46:02.000Z,-1.63
2017-12-03T04:47:02.000Z,-1.64
2017-12-03T04:48:02.000Z,-1.66
2017-12-03T04:49:02.000Z,-1.68
2017-12-03T04:50:02.000Z,-1.66
2017-12-03T04:51:02.000Z,-1.66
2017-12-03T04:52:02.000Z,-1.62
2017-12-03T04:53:02.000Z,-1.58
2017-12-03T04:54:02.000Z,-1.59
2017-12-03T04:55:02.000Z,-1.56
2017-12-03T04:56:02.000Z,-1.52
2017-12-03T04:57:02.000Z,-1.45
2017-12-03T04:58:02.000Z,-1.41
2017-12-03T04:59:02.000Z,-1.43
2017-12-03T05:00:02.000Z,-1.47
2017-12-03T05:01:02.000Z,-1.42
2017-12-03T05:02:02.000Z,-1.44
2017-12-03T05:03:02.000Z,-1.45
2017-12-03T05:04:02.000Z,-1.43
2017-12-03T05:05:02.000Z,-1.40
2017-12-03T05:06:02.000Z,-1.39
2017-12-03T05:07:02.000Z,-1.42
2017-12-03T05:08:02.000Z,-1.42
2017-12-03T05:09:02.000Z,-1.44
2017-12-03T05:10:02.000Z,-1.46
2017-12-03T05:11:02.000Z,-1.45
2017-12-03T05:12:02.000Z,-1.44
2017-12-03T05:13:02.000Z,-1.41
2017-12-03T05:14:02.000Z,-1.38
2017-12-03T05:15:02.000Z,-1.39
2017-12-03T05:16:02.000Z,-1.42
2017-12-03T05:17:02.000Z,-1.47
2017-12-03T05:18:02.000Z,-1.55
2017-12-03T05:19:02.000Z,-1.59
2017-12-03T05:20:02.000Z,-1.63
2017-12-03T05:21:02.000Z,-1.64
2017-12-03T05:22:02.000Z,-1.64
2017-12-03T05:23:02.000Z,-1.64
2017-12-03T05:24:02.000Z,-1.70
2017-12-03T05:25:02.000Z,-1.74
2017-12-03T05:26:02.000Z,-1.76
2017-12-03T05:27:02.000Z,-1.76
2017-12-03T05:28:02.000Z,-1.77
2017-12-03T05:29:02.000Z,-1.76
2017-12-03T05:30:02.000Z,-1.79
2017-12-03T05:31:02.000Z,-1.80
2017-12-03T05:32:02.000Z,-1.83
2017-12-03T05:33:02.000Z,-1.83
2017-12-03T05:34:02.000Z,-1.84
2017-12-03T05:35:02.000Z,-1.84
2017-12-03T05:36:02.000Z,-1.86
2017-12-03T05:37:02.000Z,-1.86
2017-12-03T05:38:02.000Z,-1.87
2017-12-03T05:39:02.000Z,-1.90
2017-12-03T05:40:02.000Z,-1.94
2017-12-03T05:41:02.000Z,-1.93
2017-12-03T05:42:02.000Z,-1.89
2017-12-03T05:43:02.000Z,-1.86
2017-12-03T05:44:02.000Z,-1.77
2017-12-03T05:45:02.000Z,-1.69
2017-12-03T05:46:02.000Z,-1.63
2017-12-03T05:47:02.000Z,-1.59
2017-12-03T05:48:02.000Z,-1.54
2017-12-03T05:49:02.000Z,-1.51
2017-12-03T05:50:02.000Z,-1.50
2017-12-03T05:51:02.000Z,-1.53
2017-12-03T05:52:02.000Z,-1.52
2017-12-03T05:53:08.000Z,-1.55
2017-12-03T05:54:02.000Z,-1.54
2017-12-03T05:55:02.000Z,-1.52
2017-12-03T05:56:02.000Z,-1.51
2017-12-03T05:57:02.000Z,-1.49
2017-12-03T05:58:02.000Z,-1.47
2017-12-03T05:59:02.000Z,-1.48
2017-12-03T06:00:02.000Z,-1.49
2017-12-03T06:01:02.000Z,-1.51
2017-12-03T06:02:02.000Z,-1.52
2017-12-03T06:03:02.000Z,-1.50
2017-12-03T06:04:02.000Z,-1.47
2017-12-03T06:05:02.000Z,-1.47
2017-12-03T06:06:02.000Z,-1.44
2017-12-03T06:07:02.000Z,-1.46
2017-12-03T06:08:02.000Z,-1.47
2017-12-03T06:09:02.000Z,-1.52
2017-12-03T06:10:02.000Z,-1.56
2017-12-03T06:11:02.000Z,-1.58
2017-12-03T06:12:02.000Z,-1.60
2017-12-03T06:13:02.000Z,-1.63
2017-12-03T06:14:02.000Z,-1.71
2017-12-03T06:15:02.000Z,-1.73
2017-12-03T06:16:02.000Z,-1.78
2017-12-03T06:17:02.000Z,-1.83
2017-12-03T06:18:02.000Z,-1.87
2017-12-03T06:19:02.000Z,-1.91
2017-12-03T06:20:02.000Z,-1.95
2017-12-03T06:21:02.000Z,-1.99
2017-12-03T06:22:02.000Z,-2.03
2017-12-03T06:23:02.000Z,-2.09
2017-12-03T06:24:02.000Z,-2.16
2017-12-03T06:25:02.000Z,-2.20
2017-12-03T06:26:02.000Z,-2.21
2017-12-03T06:27:02.000Z,-2.21
2017-12-03T06:28:02.000Z,-2.23
2017-12-03T06:29:02.000Z,-2.23
2017-12-03T06:30:02.000Z,-2.24
2017-12-03T06:31:02.000Z,-2.25
2017-12-03T06:32:02.000Z,-2.25
2017-12-03T06:33:02.000Z,-2.26
2017-12-03T06:34:02.000Z,-2.29
2017-12-03T06:35:02.000Z,-2.36
2017-12-03T06:36:02.000Z,-2.39
2017-12-03T06:37:02.000Z,-2.37
2017-12-03T06:38:02.000Z,-2.36
2017-12-03T06:39:02.000Z,-2.36
2017-12-03T06:40:02.000Z,-2.35
2017-12-03T06:41:02.000Z,-2.32
2017-12-03T06:42:02.000Z,-2.30
2017-12-03T06:43:02.000Z,-2.29
2017-12-03T06:44:02.000Z,-2.29
2017-12-03T06:45:02.000Z,-2.29
2017-12-03T06:46:02.000Z,-2.28
2017-12-03T06:47:02.000Z,-2.24
2017-12-03T06:48:02.000Z,-2.21
2017-12-03T06:49:02.000Z,-2.16
2017-12-03T06:50:02.000Z,-2.11
2017-12-03T06:51:02.000Z,-2.08
2017-12-03T06:52:02.000Z,-2.02
2017-12-03T06:53:02.000Z,-1.98
2017-12-03T06:54:02.000Z,-1.95
2017-12-03T06:55:02.000Z,-1.91
2017-12-03T06:56:02.000Z,-1.87
2017-12-03T06:57:02.000Z,-1.83
2017-12-03T06:58:02.000Z,-1.79
2017-12-03T06:59:02.000Z,-1.76
2017-12-03T07:00:02.000Z,-1.71
2017-12-03T07:01:02.000Z,-1.67
2017-12-03T07:02:02.000Z,-1.60
2017-12-03T07:03:02.000Z,-1.56
2017-12-03T07:04:02.000Z,-1.52
2017-12-03T07:05:02.000Z,-1.49
2017-12-03T07:06:02.000Z,-1.45
2017-12-03T07:07:02.000Z,-1.46
2017-12-03T07:08:02.000Z,-1.44
2017-12-03T07:09:02.000Z,-1.40
2017-12-03T07:10:02.000Z,-1.39
2017-12-03T07:11:02.000Z,-1.37
2017-12-03T07:12:02.000Z,-1.33
2017-12-03T07:13:02.000Z,-1.26
2017-12-03T07:14:02.000Z,-1.21
2017-12-03T07:15:02.000Z,-1.15
2017-12-03T07:16:02.000Z,-1.12
2017-12-03T07:17:02.000Z,-1.11
2017-12-03T07:18:02.000Z,-1.07
2017-12-03T07:19:02.000Z,-1.06
2017-12-03T07:20:02.000Z,-1.04
2017-12-03T07:21:02.000Z,-1.00
2017-12-03T07:22:02.000Z,-0.96
2017-12-03T07:23:02.000Z,-0.86
2017-12-03T07:24:02.000Z,-0.64
2017-12-03T07:25:02.000Z,-0.38
2017-12-03T07:26:02.000Z,-0.09
2017-12-03T07:27:02.000Z,0.19
2017-12-03T07:28:02.000Z,0.38
2017-12-03T07:29:02.000Z,0.51
2017-12-03T07:30:02.000Z,0.63
2017-12-03T07:31:02.000Z,0.68
2017-12-03T07:32:02.000Z,0.69
2017-12-03T07:33:02.000Z,0.71
2017-12-03T07:34:02.000Z,0.72
2017-12-03T07:35:02.000Z,0.71
2017-12-03T07:36:02.000Z,0.70
2017-12-03T07:37:02.000Z,0.63
2017-12-03T07:38:02.000Z,0.61
2017-12-03T07:39:02.000Z,0.59
2017-12-03T07:40:02.000Z,0.61
2017-12-03T07:41:02.000Z,0.61
2017-12-03T07:42:02.000Z,0.63
2017-12-03T07:43:02.000Z,0.68
2017-12-03T07:44:02.000Z,0.70
2017-12-03T07:45:02.000Z,0.75
2017-12-03T07:46:02.000Z,0.84
2017-12-03T07:47:02.000Z,0.89
2017-12-03T07:48:02.000Z,0.98
2017-12-03T07:49:02.000Z,1.06
2017-12-03T07:50:02.000Z,1.08
2017-12-03T07:51:02.000Z,1.10
2017-12-03T07:52:02.000Z,1.12
2017-12-03T07:53:02.000Z,1.16
2017-12-03T07:54:02.000Z,1.14
2017-12-03T07:55:02.000Z,1.14
2017-12-03T07:56:02.000Z,1.17
2017-12-03T07:57:02.000Z,1.25
2017-12-03T07:58:02.000Z,1.31
2017-12-03T07:59:02.000Z,1.32
2017-12-03T08:00:02.000Z,1.43
2017-12-03T08:01:02.000Z,1.48
2017-12-03T08:02:02.000Z,1.51
2017-12-03T08:03:02.000Z,1.45
2017-12-03T08:04:02.000Z,1.45
2017-12-03T08:05:02.000Z,1.57
2017-12-03T08:06:02.000Z,1.59
2017-12-03T08:07:02.000Z,1.59
2017-12-03T08:08:02.000Z,1.57
2017-12-03T08:09:02.000Z,1.46
2017-12-03T08:10:03.000Z,1.40
2017-12-03T08:11:02.000Z,1.39
2017-12-03T08:12:02.000Z,1.36
2017-12-03T08:13:02.000Z,1.32
2017-12-03T08:14:02.000Z,1.29
2017-12-03T08:15:02.000Z,1.25
2017-12-03T08:16:02.000Z,1.17
2017-12-03T08:17:02.000Z,1.08
2017-12-03T08:18:02.000Z,0.96
2017-12-03T08:19:02.000Z,0.89
2017-12-03T08:20:02.000Z,0.86
2017-12-03T08:21:02.000Z,0.86
2017-12-03T08:22:02.000Z,0.88
2017-12-03T08:23:02.000Z,0.87
2017-12-03T08:24:02.000Z,0.81
2017-12-03T08:25:02.000Z,0.78
2017-12-03T08:26:02.000Z,0.77
2017-12-03T08:27:03.000Z,0.73
2017-12-03T08:28:03.000Z,0.69
2017-12-03T08:29:03.000Z,0.70
2017-12-03T08:30:03.000Z,0.70
2017-12-03T08:31:03.000Z,0.68
2017-12-03T08:32:03.000Z,0.68
2017-12-03T08:33:03.000Z,0.69
2017-12-03T08:34:03.000Z,0.69
2017-12-03T08:35:03.000Z,0.72
2017-12-03T08:36:03.000Z,0.73
2017-12-03T08:37:03.000Z,0.74
2017-12-03T08:38:03.000Z,0.74
2017-12-03T08:39:03.000Z,0.75
2017-12-03T08:40:03.000Z,0.76
2017-12-03T08:41:03.000Z,0.73
2017-12-03T08:42:03.000Z,0.72
2017-12-03T08:43:03.000Z,0.73
2017-12-03T08:44:03.000Z,0.73
2017-12-03T08:45:03.000Z,0.74
2017-12-03T08:46:03.000Z,0.74
2017-12-03T08:47:03.000Z,0.73
2017-12-03T08:48:03.000Z,0.73
2017-12-03T08:49:03.000Z,0.73
2017-12-03T08:50:03.000Z,0.72
2017-12-03T08:51:03.000Z,0.72
2017-12-03T08:52:03.000Z,0.71
2017-12-03T08:53:03.000Z,0.73
2017-12-03T08:54:03.000Z,0.74
2017-12-03T08:55:03.000Z,0.74
2017-12-03T08:56:03.000Z,0.74
2017-12-03T08:57:03.000Z,0.73
2017-12-03T08:58:03.000Z,0.72
2017-12-03T08:59:03.000Z,0.71
2017-12-03T09:00:03.000Z,0.68
2017-12-03T09:01:03.000Z,0.65
2017-12-03T09:02:03.000Z,0.63
2017-12-03T09:03:03.000Z,0.64
2017-12-03T09:04:03.000Z,0.63
2017-12-03T09:05:03.000Z,0.63
2017-12-03T09:06:03.000Z,0.64
2017-12-03T09:07:03.000Z,0.65
2017-12-03T09:08:03.000Z,0.63
2017-12-03T09:09:03.000Z,0.62
2017-12-03T09:10:03.000Z,0.63
2017-12-03T09:11:03.000Z,0.59
2017-12-03T09:12:03.000Z,0.60
2017-12-03T09:13:03.000Z,0.59
2017-12-03T09:14:03.000Z,0.56
2017-12-03T09:15:03.000Z,0.53
2017-12-03T09:16:03.000Z,0.53
2017-12-03T09:17:03.000Z,0.53
2017-12-03T09:18:03.000Z,0.53
2017-12-03T09:19:03.000Z,0.53
2017-12-03T09:20:03.000Z,0.53
2017-12-03T09:21:03.000Z,0.49
2017-12-03T09:22:03.000Z,0.52
2017-12-03T09:23:03.000Z,0.52
2017-12-03T09:24:03.000Z,0.50
2017-12-03T09:25:03.000Z,0.48
2017-12-03T09:26:03.000Z,0.44
2017-12-03T09:27:03.000Z,0.43
2017-12-03T09:28:03.000Z,0.39
2017-12-03T09:29:03.000Z,0.38
2017-12-03T09:30:03.000Z,0.36
2017-12-03T09:31:03.000Z,0.33
2017-12-03T09:32:03.000Z,0.31
2017-12-03T09:33:03.000Z,0.31
2017-12-03T09:34:03.000Z,0.24
2017-12-03T09:35:03.000Z,0.22
2017-12-03T09:36:03.000Z,0.24
2017-12-03T09:37:03.000Z,0.24
2017-12-03T09:38:03.000Z,0.27
2017-12-03T09:39:03.000Z,0.25
2017-12-03T09:40:03.000Z,0.24
2017-12-03T09:41:03.000Z,0.22
2017-12-03T09:42:03.000Z,0.21
2017-12-03T09:43:03.000Z,0.21
2017-12-03T09:44:03.000Z,0.23
2017-12-03T09:45:03.000Z,0.22
2017-12-03T09:46:03.000Z,0.24
2017-12-03T09:47:03.000Z,0.22
2017-12-03T09:48:03.000Z,0.26
2017-12-03T09:49:03.000Z,0.22
2017-12-03T09:50:03.000Z,0.23
2017-12-03T09:51:03.000Z,0.24
2017-12-03T09:52:03.000Z,0.25
2017-12-03T09:53:03.000Z,0.27
2017-12-03T09:54:03.000Z,0.26
2017-12-03T09:55:03.000Z,0.29
2017-12-03T09:56:03.000Z,0.30
2017-12-03T09:57:03.000Z,0.28
2017-12-03T09:58:03.000Z,0.28
2017-12-03T09:59:03.000Z,0.29
2017-12-03T10:00:03.000Z,0.27
2017-12-03T10:01:03.000Z,0.26
2017-12-03T10:02:03.000Z,0.27
2017-12-03T10:03:03.000Z,0.27
2017-12-03T10:04:03.000Z,0.28
2017-12-03T10:05:03.000Z,0.23
2017-12-03T10:06:03.000Z,0.24
2017-12-03T10:07:03.000Z,0.23
2017-12-03T10:08:03.000Z,0.25
2017-12-03T10:09:03.000Z,0.24
2017-12-03T10:10:03.000Z,0.22
2017-12-03T10:11:18.000Z,0.19
2017-12-03T10:12:03.000Z,0.20
2017-12-03T10:13:03.000Z,0.21
2017-12-03T10:14:03.000Z,0.22
2017-12-03T10:15:03.000Z,0.23
2017-12-03T10:16:03.000Z,0.26
2017-12-03T10:17:03.000Z,0.29
2017-12-03T10:18:03.000Z,0.31
2017-12-03T10:19:03.000Z,0.32
2017-12-03T10:20:03.000Z,0.34
2017-12-03T10:21:03.000Z,0.36
2017-12-03T10:22:03.000Z,0.35
2017-12-03T10:23:03.000Z,0.38
2017-12-03T10:24:03.000Z,0.35
2017-12-03T10:25:03.000Z,0.34
2017-12-03T10:26:03.000Z,0.33
2017-12-03T10:27:03.000Z,0.33
2017-12-03T10:28:03.000Z,0.33
2017-12-03T10:29:03.000Z,0.31
2017-12-03T10:30:03.000Z,0.32
2017-12-03T10:31:03.000Z,0.32
2017-12-03T10:32:03.000Z,0.30
2017-12-03T10:33:03.000Z,0.29
2017-12-03T10:34:03.000Z,0.28
2017-12-03T10:35:03.000Z,0.29
2017-12-03T10:36:03.000Z,0.30
2017-12-03T10:37:03.000Z,0.27
2017-12-03T10:38:03.000Z,0.22
2017-12-03T10:39:03.000Z,0.21
2017-12-03T10:40:03.000Z,0.19
2017-12-03T10:41:03.000Z,0.17
2017-12-03T10:42:03.000Z,0.13
2017-12-03T10:43:03.000Z,0.10
2017-12-03T10:44:03.000Z,0.11
2017-12-03T10:45:03.000Z,0.13
2017-12-03T10:46:03.000Z,0.14
2017-12-03T10:47:03.000Z,0.13
2017-12-03T10:48:03.000Z,0.11
2017-12-03T10:49:03.000Z,0.08
2017-12-03T10:50:03.000Z,0.09
2017-12-03T10:51:03.000Z,0.10
2017-12-03T10:52:03.000Z,0.07
2017-12-03T10:53:03.000Z,0.08
2017-12-03T10:54:03.000Z,0.08
2017-12-03T10:55:03.000Z,0.05
2017-12-03T10:56:03.000Z,0.07
2017-12-03T10:57:03.000Z,0.08
2017-12-03T10:58:03.000Z,0.05
2017-12-03T10:59:03.000Z,0.07
2017-12-03T11:00:03.000Z,0.11
2017-12-03T11:01:03.000Z,0.12
2017-12-03T11:02:03.000Z,0.13
2017-12-03T11:03:03.000Z,0.14
2017-12-03T11:04:03.000Z,0.15
2017-12-03T11:05:03.000Z,0.11
2017-12-03T11:06:03.000Z,0.11
2017-12-03T11:07:03.000Z,0.09
2017-12-03T11:08:03.000Z,0.10
2017-12-03T11:09:03.000Z,0.11
2017-12-03T11:10:03.000Z,0.14
2017-12-03T11:11:03.000Z,0.12
2017-12-03T11:12:03.000Z,0.16
2017-12-03T11:13:03.000Z,0.18
2017-12-03T11:14:03.000Z,0.15
2017-12-03T11:15:03.000Z,0.18
2017-12-03T11:16:03.000Z,0.20
2017-12-03T11:17:03.000Z,0.19
2017-12-03T11:18:03.000Z,0.17
2017-12-03T11:19:03.000Z,0.19
2017-12-03T11:20:03.000Z,0.21
2017-12-03T11:21:03.000Z,0.19
2017-12-03T11:22:03.000Z,0.20
2017-12-03T11:23:03.000Z,0.17
2017-12-03T11:24:03.000Z,0.18
2017-12-03T11:25:03.000Z,0.19
2017-12-03T11:26:03.000Z,0.19
2017-12-03T11:27:03.000Z,0.20
2017-12-03T11:28:03.000Z,0.22
2017-12-03T11:29:03.000Z,0.22
2017-12-03T11:30:03.000Z,0.22
2017-12-03T11:31:03.000Z,0.18
2017-12-03T11:32:03.000Z,0.19
2017-12-03T11:33:03.000Z,0.14
2017-12-03T11:34:03.000Z,0.08
2017-12-03T11:35:03.000Z,0.08
2017-12-03T11:36:03.000Z,0.11
2017-12-03T11:37:03.000Z,0.12
2017-12-03T11:38:03.000Z,0.12
2017-12-03T11:39:03.000Z,0.13
2017-12-03T11:40:03.000Z,0.12
2017-12-03T11:41:03.000Z,0.07
2017-12-03T11:42:03.000Z,0.03
2017-12-03T11:43:03.000Z,0.04
2017-12-03T11:44:03.000Z,0.06
2017-12-03T11:45:03.000Z,0.08
2017-12-03T11:46:03.000Z,0.09
2017-12-03T11:47:03.000Z,0.11
2017-12-03T11:48:03.000Z,0.12
2017-12-03T11:49:03.000Z,0.12
2017-12-03T11:50:03.000Z,0.13
2017-12-03T11:51:03.000Z,0.12
2017-12-03T11:52:03.000Z,0.13
2017-12-03T11:53:03.000Z,0.15
2017-12-03T11:54:03.000Z,0.20
2017-12-03T11:55:03.000Z,0.20
2017-12-03T11:56:03.000Z,0.17
2017-12-03T11:57:03.000Z,0.18
2017-12-03T11:58:03.000Z,0.15
2017-12-03T11:59:05.000Z,0.15
2017-12-03T12:00:03.000Z,0.16
2017-12-03T12:01:03.000Z,0.13
2017-12-03T12:02:03.000Z,0.11
2017-12-03T12:03:03.000Z,0.10
2017-12-03T12:04:03.000Z,0.07
2017-12-03T12:05:03.000Z,-0.01
2017-12-03T12:06:03.000Z,-0.04
2017-12-03T12:07:03.000Z,-0.05
2017-12-03T12:08:03.000Z,-0.06
2017-12-03T12:09:03.000Z,-0.06
2017-12-03T12:10:03.000Z,-0.04
2017-12-03T12:11:03.000Z,-0.06
2017-12-03T12:12:03.000Z,-0.06
2017-12-03T12:13:03.000Z,-0.04
2017-12-03T12:14:03.000Z,-0.02
2017-12-03T12:15:03.000Z,-0.04
2017-12-03T12:16:03.000Z,-0.03
2017-12-03T12:17:03.000Z,-0.05
2017-12-03T12:18:03.000Z,-0.02
2017-12-03T12:19:03.000Z,-0.03
2017-12-03T12:20:03.000Z,-0.01
2017-12-03T12:21:03.000Z,-0.05
2017-12-03T12:22:03.000Z,-0.05
2017-12-03T12:23:03.000Z,-0.02
2017-12-03T12:24:03.000Z,0.01
2017-12-03T12:25:03.000Z,0.02
2017-12-03T12:26:03.000Z,0.02
2017-12-03T12:27:03.000Z,0.02
2017-12-03T12:28:03.000Z,0.02
2017-12-03T12:29:03.000Z,0.03
2017-12-03T12:30:03.000Z,0.03
2017-12-03T12:31:03.000Z,0.04
2017-12-03T12:32:03.000Z,0.03
2017-12-03T12:33:03.000Z,0.04
2017-12-03T12:34:03.000Z,0.04
2017-12-03T12:35:03.000Z,0.02
2017-12-03T12:36:03.000Z,0.04
2017-12-03T12:37:03.000Z,0.05
2017-12-03T12:38:03.000Z,0.10
2017-12-03T12:39:03.000Z,0.13
2017-12-03T12:40:03.000Z,0.12
2017-12-03T12:41:03.000Z,0.09
2017-12-03T12:42:03.000Z,0.09
2017-12-03T12:43:03.000Z,0.06
2017-12-03T12:44:03.000Z,0.03
2017-12-03T12:45:03.000Z,0.02
2017-12-03T12:46:03.000Z,0.03
2017-12-03T12:47:04.000Z,0.06
2017-12-03T12:48:03.000Z,0.06
2017-12-03T12:49:03.000Z,0.08
2017-12-03T12:50:03.000Z,0.10
2017-12-03T12:51:03.000Z,0.11
2017-12-03T12:52:03.000Z,0.12
2017-12-03T12:53:03.000Z,0.09
2017-12-03T12:54:03.000Z,0.07
2017-12-03T12:55:03.000Z,0.08
2017-12-03T12:56:03.000Z,0.07
2017-12-03T12:57:03.000Z,0.07
2017-12-03T12:58:03.000Z,0.04
2017-12-03T12:59:03.000Z,0.04
2017-12-03T13:00:03.000Z,0.05
2017-12-03T13:01:03.000Z,0.06
2017-12-03T13:02:03.000Z,0.06
2017-12-03T13:03:03.000Z,0.06
2017-12-03T13:04:03.000Z,0.05